createdAt,value
2019-05-06T00:00:58.210Z,3.40
2019-05-06T00:03:21.008Z,3.50
2019-05-06T00:05:48.560Z,3.40
2019-05-06T00:08:16.110Z,3.40
2019-05-06T00:10:44.738Z,3.40
2019-05-06T00:13:14.020Z,3.40
2019-05-06T00:15:43.690Z,3.30
2019-05-06T00:18:10.955Z,3.20
2019-05-06T00:20:38.521Z,3.20
2019-05-06T00:23:24.921Z,3.20
2019-05-06T00:26:04.049Z,3.20
2019-05-06T00:28:48.456Z,3.30
2019-05-06T00:31:17.654Z,3.30
2019-05-06T00:33:45.199Z,3.30
2019-05-06T00:36:14.150Z,3.30
2019-05-06T00:38:44.763Z,3.20
2019-05-06T00:41:16.782Z,3.30
2019-05-06T00:43:44.419Z,3.20
2019-05-06T00:46:13.772Z,3.20
2019-05-06T00:48:41.273Z,3.10
2019-05-06T00:51:08.855Z,3.10
2019-05-06T00:53:38.024Z,3.00
2019-05-06T00:56:05.604Z,3.00
2019-05-06T00:58:34.830Z,3.00
2019-05-06T01:01:04.466Z,3.10
2019-05-06T01:03:31.711Z,3.10
2019-05-06T01:05:59.238Z,3.10
2019-05-06T01:08:26.800Z,3.10
2019-05-06T01:10:54.686Z,3.10
2019-05-06T01:13:35.115Z,3.10
2019-05-06T01:16:04.227Z,3.20
2019-05-06T01:18:33.909Z,3.20
2019-05-06T01:21:09.993Z,3.20
2019-05-06T01:23:38.411Z,3.20
2019-05-06T01:26:05.965Z,3.20
2019-05-06T01:28:34.083Z,3.20
2019-05-06T01:31:01.712Z,3.20
2019-05-06T01:33:29.258Z,3.20
2019-05-06T01:35:56.806Z,3.20
2019-05-06T01:38:35.170Z,3.20
2019-05-06T01:41:19.827Z,3.20
2019-05-06T01:43:47.363Z,3.20
2019-05-06T01:46:14.916Z,3.30
2019-05-06T01:48:48.244Z,3.20
2019-05-06T01:51:16.551Z,3.20
2019-05-06T01:53:44.817Z,3.20
2019-05-06T01:56:14.440Z,3.20
2019-05-06T01:58:43.856Z,3.10
2019-05-06T02:01:10.945Z,3.10
2019-05-06T02:03:38.485Z,3.20
2019-05-06T02:06:06.049Z,3.20
2019-05-06T02:08:33.719Z,3.20
2019-05-06T02:11:01.420Z,3.30
2019-05-06T02:13:28.967Z,3.30
2019-05-06T02:15:56.533Z,3.40
2019-05-06T02:18:24.389Z,3.40
2019-05-06T02:20:53.881Z,3.40
2019-05-06T02:23:33.860Z,3.50
2019-05-06T02:26:01.570Z,3.60
2019-05-06T02:28:29.112Z,3.60
2019-05-06T02:30:58.302Z,3.70
2019-05-06T02:33:30.169Z,3.70
2019-05-06T02:35:59.336Z,3.70
2019-05-06T02:38:42.224Z,3.70
2019-05-06T02:40:57.802Z,3.70
2019-05-06T02:43:25.333Z,3.80
2019-05-06T02:45:53.239Z,3.80
2019-05-06T02:48:33.566Z,3.80
2019-05-06T02:51:03.728Z,3.80
2019-05-06T02:53:33.360Z,3.90
2019-05-06T02:56:03.774Z,3.90
2019-05-06T02:58:32.835Z,3.90
2019-05-06T03:00:59.380Z,3.70
2019-05-06T03:03:26.939Z,3.60
2019-05-06T03:05:54.502Z,3.60
2019-05-06T03:08:23.649Z,3.60
2019-05-06T03:11:13.555Z,3.60
2019-05-06T03:13:43.429Z,3.60
2019-05-06T03:16:09.455Z,3.60
2019-05-06T03:18:36.999Z,3.70
2019-05-06T03:21:06.185Z,3.80
2019-05-06T03:23:43.738Z,3.80
2019-05-06T03:26:13.684Z,3.80
2019-05-06T03:28:40.076Z,3.80
2019-05-06T03:31:08.327Z,3.90
2019-05-06T03:33:57.010Z,3.90
2019-05-06T03:36:15.136Z,3.80
2019-05-06T03:38:34.671Z,3.80
2019-05-06T03:41:03.057Z,3.90
2019-05-06T03:43:33.665Z,3.80
2019-05-06T03:46:14.439Z,3.80
2019-05-06T03:48:44.458Z,3.80
2019-05-06T03:51:13.539Z,3.80
2019-05-06T03:53:43.310Z,3.80
2019-05-06T03:56:14.306Z,3.80
2019-05-06T03:58:43.272Z,3.90
2019-05-06T04:01:09.159Z,3.80
2019-05-06T04:03:46.752Z,3.80
2019-05-06T04:06:05.996Z,3.90
2019-05-06T04:08:34.328Z,3.80
2019-05-06T04:11:03.146Z,3.80
2019-05-06T04:13:33.206Z,3.90
2019-05-06T04:19:04.168Z,3.90
2019-05-06T04:21:38.326Z,3.90
2019-05-06T04:24:13.423Z,4.00
2019-05-06T04:26:46.018Z,4.00
2019-05-06T04:29:13.045Z,4.10
2019-05-06T04:31:43.354Z,4.00
2019-05-06T04:34:15.947Z,4.10
2019-05-06T04:36:39.340Z,4.10
2019-05-06T04:39:06.874Z,4.10
2019-05-06T04:41:34.552Z,4.10
2019-05-06T04:44:03.009Z,4.10
2019-05-06T04:46:34.350Z,4.10
2019-05-06T04:48:59.884Z,4.10
2019-05-06T04:51:27.431Z,4.10
2019-05-06T04:53:54.957Z,4.00
2019-05-06T04:56:23.688Z,4.00
2019-05-06T04:58:53.855Z,4.00
2019-05-06T05:01:23.155Z,3.70
2019-05-06T05:03:50.124Z,3.70
2019-05-06T05:06:17.694Z,3.70
2019-05-06T05:08:45.228Z,3.60
2019-05-06T05:11:33.321Z,3.60
2019-05-06T05:14:08.058Z,3.80
2019-05-06T05:16:42.027Z,3.90
2019-05-06T05:19:12.136Z,3.90
2019-05-06T05:21:39.957Z,3.90
2019-05-06T05:24:07.486Z,4.10
2019-05-06T05:26:35.037Z,4.20
2019-05-06T05:29:02.932Z,4.20
2019-05-06T05:31:32.940Z,4.30
2019-05-06T05:34:01.926Z,4.40
2019-05-06T05:36:29.150Z,4.40
2019-05-06T05:38:56.694Z,4.40
2019-05-06T05:41:24.239Z,4.40
2019-05-06T05:43:53.436Z,4.50
2019-05-06T05:46:21.847Z,4.60
2019-05-06T05:49:03.457Z,4.70
2019-05-06T05:51:32.046Z,4.90
2019-05-06T05:54:02.069Z,5.00
2019-05-06T05:56:29.518Z,5.10
2019-05-06T05:58:57.078Z,5.10
2019-05-06T06:01:24.616Z,5.20
2019-05-06T06:03:52.779Z,5.30
2019-05-06T06:06:22.152Z,5.40
2019-05-06T06:08:52.098Z,5.40
2019-05-06T06:11:22.869Z,5.50
2019-05-06T06:13:52.168Z,5.60
2019-05-06T06:16:32.933Z,5.70
2019-05-06T06:19:12.687Z,5.70
2019-05-06T06:21:44.959Z,5.80
2019-05-06T06:24:14.176Z,5.70
2019-05-06T06:26:42.970Z,5.70
2019-05-06T06:29:12.485Z,5.80
2019-05-06T06:31:44.405Z,5.80
2019-05-06T06:34:13.577Z,5.90
2019-05-06T06:36:45.486Z,5.90
2019-05-06T06:39:23.803Z,6.10
2019-05-06T06:41:51.890Z,6.20
2019-05-06T06:44:23.964Z,6.40
2019-05-06T06:46:52.438Z,6.50
2019-05-06T06:49:22.235Z,6.70
2019-05-06T06:51:49.504Z,6.70
2019-05-06T06:54:17.052Z,6.60
2019-05-06T06:57:02.475Z,6.50
2019-05-06T06:59:25.774Z,6.70
2019-05-06T07:01:57.723Z,6.90
2019-05-06T07:04:27.964Z,7.00
2019-05-06T07:06:57.508Z,7.00
2019-05-06T07:09:25.069Z,6.90
2019-05-06T07:11:52.686Z,7.00
2019-05-06T07:14:22.492Z,7.10
2019-05-06T07:16:49.518Z,7.00
2019-05-06T07:19:18.687Z,6.70
2019-05-06T07:21:47.883Z,6.80
2019-05-06T07:24:15.421Z,7.00
2019-05-06T07:26:44.602Z,7.10
2019-05-06T07:29:19.155Z,7.20
2019-05-06T07:31:42.625Z,7.30
2019-05-06T07:34:11.978Z,7.50
2019-05-06T07:36:39.662Z,7.60
2019-05-06T07:39:07.193Z,7.80
2019-05-06T07:41:45.826Z,8.00
2019-05-06T07:44:25.188Z,8.10
2019-05-06T07:47:03.351Z,8.30
2019-05-06T07:49:29.808Z,8.50
2019-05-06T07:51:57.382Z,8.60
2019-05-06T07:54:24.912Z,8.60
2019-05-06T07:56:52.766Z,8.70
2019-05-06T07:59:22.451Z,8.80
2019-05-06T08:01:49.651Z,8.90
2019-05-06T08:04:17.184Z,9.10
2019-05-06T08:06:44.726Z,9.30
2019-05-06T08:09:12.939Z,9.30
2019-05-06T08:11:42.255Z,9.30
2019-05-06T08:14:09.920Z,9.30
2019-05-06T08:16:44.318Z,9.30
2019-05-06T08:19:11.985Z,9.50
2019-05-06T08:21:42.789Z,9.70
2019-05-06T08:24:12.039Z,9.70
2019-05-06T08:26:39.671Z,9.80
2019-05-06T08:29:07.339Z,10.00
2019-05-06T08:31:34.898Z,10.20
2019-05-06T08:34:02.751Z,10.30
2019-05-06T08:36:34.697Z,10.30
2019-05-06T08:39:03.863Z,10.40
2019-05-06T08:41:33.143Z,10.40
2019-05-06T08:44:02.687Z,10.40
2019-05-06T08:46:32.461Z,10.30
2019-05-06T08:48:59.260Z,10.00
2019-05-06T08:51:28.423Z,9.70
2019-05-06T08:53:57.619Z,9.40
2019-05-06T08:56:25.160Z,9.30
2019-05-06T08:58:53.009Z,9.20
2019-05-06T09:01:22.478Z,9.00
2019-05-06T09:04:05.076Z,8.90
2019-05-06T09:06:27.527Z,8.90
2019-05-06T09:08:48.532Z,8.80
2019-05-06T09:11:16.068Z,8.80
2019-05-06T09:13:43.619Z,8.90
2019-05-06T09:16:12.988Z,9.00
2019-05-06T09:18:42.526Z,9.10
2019-05-06T09:21:12.147Z,9.30
2019-05-06T09:23:39.006Z,9.50
2019-05-06T09:26:08.182Z,9.80
2019-05-06T09:28:49.372Z,10.00
2019-05-06T09:31:32.136Z,10.30
2019-05-06T09:34:19.896Z,10.60
2019-05-06T09:36:52.639Z,10.80
2019-05-06T09:39:18.372Z,10.90
2019-05-06T09:41:47.698Z,11.30
2019-05-06T09:44:15.199Z,11.80
2019-05-06T09:46:42.873Z,12.50
2019-05-06T09:49:12.798Z,12.90
2019-05-06T09:51:42.473Z,12.60
2019-05-06T09:54:12.871Z,12.20
2019-05-06T09:56:42.718Z,11.90
2019-05-06T09:59:12.792Z,11.70
2019-05-06T10:01:39.711Z,11.40
2019-05-06T10:04:07.913Z,11.20
2019-05-06T10:06:35.935Z,11.00
2019-05-06T10:09:05.494Z,10.80
2019-05-06T10:11:33.053Z,10.80
2019-05-06T10:14:02.882Z,10.70
2019-05-06T10:16:29.888Z,10.60
2019-05-06T10:18:57.424Z,10.60
2019-05-06T10:21:24.996Z,10.40
2019-05-06T10:23:52.909Z,10.40
2019-05-06T10:26:20.606Z,10.40
2019-05-06T10:29:02.471Z,11.90
2019-05-06T10:31:32.721Z,14.10
2019-05-06T10:34:15.443Z,16.40
2019-05-06T10:36:48.197Z,18.20
2019-05-06T10:39:15.723Z,18.90
2019-05-06T10:41:44.907Z,18.30
2019-05-06T10:44:23.083Z,18.20
2019-05-06T10:46:52.725Z,18.70
2019-05-06T10:49:22.366Z,18.70
2019-05-06T10:51:52.873Z,18.80
2019-05-06T10:54:20.113Z,18.90
2019-05-06T10:56:53.990Z,19.00
2019-05-06T10:59:22.002Z,18.00
2019-05-06T11:01:50.880Z,17.00
2019-05-06T11:04:18.424Z,15.90
2019-05-06T11:06:46.017Z,15.40
2019-05-06T11:09:13.659Z,14.90
2019-05-06T11:11:42.807Z,14.50
2019-05-06T11:14:12.715Z,14.10
2019-05-06T11:16:39.718Z,13.70
2019-05-06T11:19:07.281Z,13.20
2019-05-06T11:21:34.810Z,12.90
2019-05-06T11:24:05.912Z,12.70
2019-05-06T11:26:31.634Z,12.40
2019-05-06T11:29:05.073Z,12.30
2019-05-06T11:31:49.981Z,12.30
2019-05-06T11:34:22.279Z,12.50
2019-05-06T11:36:52.412Z,12.50
2019-05-06T11:39:20.210Z,12.60
2019-05-06T11:42:01.671Z,12.70
2019-05-06T11:44:17.042Z,13.40
2019-05-06T11:46:44.596Z,14.10
2019-05-06T11:49:12.571Z,14.70
2019-05-06T11:51:40.272Z,15.90
2019-05-06T11:54:17.438Z,17.50
2019-05-06T11:56:48.769Z,18.50
2019-05-06T11:59:06.632Z,18.70
2019-05-06T12:01:38.819Z,18.30
2019-05-06T12:04:06.368Z,20.00
2019-05-06T12:06:33.915Z,21.70
2019-05-06T12:09:06.101Z,21.70
2019-05-06T12:11:30.744Z,21.60
2019-05-06T12:13:58.303Z,21.00
2019-05-06T12:16:26.453Z,20.30
2019-05-06T12:18:54.171Z,20.50
2019-05-06T12:21:23.157Z,20.80
2019-05-06T12:23:53.541Z,22.60
2019-05-06T12:26:20.240Z,22.80
2019-05-06T12:28:47.790Z,22.10
2019-05-06T12:31:15.331Z,23.30
2019-05-06T12:33:44.535Z,24.40
2019-05-06T12:36:13.770Z,24.00
2019-05-06T12:38:59.330Z,23.40
2019-05-06T12:41:26.860Z,22.10
2019-05-06T12:43:54.782Z,19.90
2019-05-06T12:46:26.802Z,18.90
2019-05-06T12:48:54.368Z,18.70
2019-05-06T12:51:22.764Z,20.40
2019-05-06T12:53:52.708Z,21.00
2019-05-06T12:56:19.711Z,19.90
2019-05-06T12:58:47.277Z,19.60
2019-05-06T13:01:14.814Z,21.00
2019-05-06T13:03:43.265Z,21.30
2019-05-06T13:06:13.012Z,21.40
2019-05-06T13:08:53.993Z,20.80
2019-05-06T13:11:09.534Z,21.80
2019-05-06T13:13:37.090Z,22.80
2019-05-06T13:16:04.886Z,22.60
2019-05-06T13:18:32.833Z,21.30
2019-05-06T13:21:04.330Z,20.40
2019-05-06T13:23:49.748Z,19.50
2019-05-06T13:26:17.302Z,18.50
2019-05-06T13:28:46.476Z,18.20
2019-05-06T13:31:20.967Z,17.60
2019-05-06T13:33:45.286Z,17.00
2019-05-06T13:36:13.267Z,16.70
2019-05-06T13:38:42.632Z,16.20
2019-05-06T13:41:12.568Z,15.60
2019-05-06T13:43:43.938Z,15.10
2019-05-06T13:46:19.263Z,14.70
2019-05-06T13:48:57.473Z,14.60
2019-05-06T13:51:25.433Z,15.10
2019-05-06T13:53:53.046Z,16.80
2019-05-06T13:56:20.609Z,18.20
2019-05-06T13:58:48.155Z,18.30
2019-05-06T14:01:17.319Z,17.80
2019-05-06T14:03:44.921Z,17.40
2019-05-06T14:06:12.471Z,16.90
2019-05-06T14:08:42.148Z,17.00
2019-05-06T14:11:09.312Z,17.00
2019-05-06T14:13:36.867Z,16.50
2019-05-06T14:16:04.402Z,16.90
2019-05-06T14:18:33.263Z,17.10
2019-05-06T14:21:03.000Z,17.50
2019-05-06T14:23:32.602Z,17.60
2019-05-06T14:26:04.296Z,17.20
2019-05-06T14:28:43.094Z,17.00
2019-05-06T14:31:18.154Z,17.20
2019-05-06T14:33:45.716Z,16.50
2019-05-06T14:36:13.261Z,15.80
2019-05-06T14:38:42.960Z,15.30
2019-05-06T14:41:13.182Z,15.30
2019-05-06T14:43:42.820Z,15.00
2019-05-06T14:46:10.224Z,15.10
2019-05-06T14:48:37.818Z,15.30
2019-05-06T14:51:05.368Z,15.50
2019-05-06T14:53:33.334Z,15.80
2019-05-06T14:56:02.694Z,16.20
2019-05-06T14:58:32.126Z,16.70
2019-05-06T15:00:59.536Z,17.20
2019-05-06T15:03:27.067Z,17.20
2019-05-06T15:05:54.619Z,16.90
2019-05-06T15:08:22.621Z,16.70
2019-05-06T15:10:50.200Z,16.30
2019-05-06T15:13:17.772Z,15.80
2019-05-06T15:15:45.312Z,15.30
2019-05-06T15:18:12.866Z,14.90
2019-05-06T15:20:42.441Z,14.60
2019-05-06T15:23:09.688Z,14.40
2019-05-06T15:25:37.338Z,14.30
2019-05-06T15:28:04.863Z,14.10
2019-05-06T15:30:34.220Z,14.10
2019-05-06T15:33:02.546Z,14.30
2019-05-06T15:35:57.320Z,14.40
2019-05-06T15:38:26.547Z,14.60
2019-05-06T15:40:54.085Z,14.90
2019-05-06T15:43:22.102Z,15.10
2019-05-06T15:45:49.788Z,15.10
2019-05-06T15:48:17.343Z,14.90
2019-05-06T15:50:45.970Z,14.80
2019-05-06T15:53:13.742Z,14.70
2019-05-06T15:55:43.507Z,14.50
2019-05-06T15:58:12.431Z,14.40
2019-05-06T16:00:42.269Z,14.20
2019-05-06T16:03:09.081Z,14.00
2019-05-06T16:05:36.644Z,13.90
2019-05-06T16:08:04.201Z,13.90
2019-05-06T16:10:37.874Z,13.90
2019-05-06T16:13:02.322Z,13.80
2019-05-06T16:15:30.054Z,13.80
2019-05-06T16:17:57.578Z,14.00
2019-05-06T16:20:25.167Z,14.00
2019-05-06T16:22:54.351Z,14.00
2019-05-06T16:25:21.896Z,13.80
2019-05-06T16:27:54.359Z,13.70
2019-05-06T16:30:24.023Z,13.70
2019-05-06T16:32:49.614Z,13.70
2019-05-06T16:35:17.147Z,13.50
2019-05-06T16:37:44.699Z,13.50
2019-05-06T16:40:12.462Z,13.40
2019-05-06T16:42:45.343Z,13.30
2019-05-06T16:45:09.461Z,13.30
2019-05-06T16:47:37.677Z,13.20
2019-05-06T16:50:05.918Z,13.10
2019-05-06T16:52:33.824Z,13.00
2019-05-06T16:55:03.171Z,13.00
2019-05-06T16:57:33.231Z,13.00
2019-05-06T17:00:02.865Z,12.90
2019-05-06T17:02:32.384Z,12.80
2019-05-06T17:05:36.396Z,12.70
2019-05-06T17:08:03.930Z,12.80
2019-05-06T17:10:32.337Z,12.70
2019-05-06T17:13:02.725Z,12.70
2019-05-06T17:15:31.982Z,12.70
2019-05-06T17:17:58.974Z,12.60
2019-05-06T17:20:26.520Z,12.60
2019-05-06T17:22:54.083Z,12.60
2019-05-06T17:25:22.452Z,12.50
2019-05-06T17:27:52.572Z,12.50
2019-05-06T17:30:22.545Z,12.40
2019-05-06T17:32:54.783Z,12.40
2019-05-06T17:35:23.212Z,12.30
2019-05-06T17:37:52.819Z,12.30
2019-05-06T17:40:22.947Z,12.20
2019-05-06T17:42:53.119Z,12.20
2019-05-06T17:45:38.314Z,12.10
2019-05-06T17:48:12.582Z,12.10
2019-05-06T17:50:42.021Z,12.10
2019-05-06T17:53:09.431Z,12.10
2019-05-06T17:55:36.993Z,11.90
2019-05-06T17:58:04.514Z,11.90
2019-05-06T18:00:32.448Z,11.80
2019-05-06T18:03:02.358Z,11.80
2019-05-06T18:05:29.402Z,11.70
2019-05-06T18:07:56.957Z,11.70
2019-05-06T18:10:24.541Z,11.70
2019-05-06T18:12:59.321Z,11.60
2019-05-06T18:15:26.883Z,11.50
2019-05-06T18:17:54.424Z,11.40
2019-05-06T18:20:22.230Z,11.30
2019-05-06T18:22:49.819Z,11.30
2019-05-06T18:25:17.364Z,11.30
2019-05-06T18:27:53.833Z,11.20
2019-05-06T18:30:25.543Z,11.20
2019-05-06T18:32:52.048Z,11.20
2019-05-06T18:35:19.670Z,11.20
2019-05-06T18:37:47.216Z,11.10
2019-05-06T18:40:14.780Z,11.10
2019-05-06T18:42:43.099Z,11.00
2019-05-06T18:45:12.335Z,11.00
2019-05-06T18:47:41.869Z,10.90
2019-05-06T18:50:09.344Z,10.90
2019-05-06T18:52:36.914Z,10.90
2019-05-06T18:55:05.047Z,10.90
2019-05-06T18:57:33.124Z,10.80
2019-05-06T19:00:02.951Z,10.70
2019-05-06T19:02:30.094Z,10.70
2019-05-06T19:05:08.544Z,10.70
2019-05-06T19:07:36.103Z,10.60
2019-05-06T19:10:08.538Z,10.60
2019-05-06T19:12:40.460Z,10.60
2019-05-06T19:15:05.322Z,10.60
2019-05-06T19:17:33.566Z,10.50
2019-05-06T19:20:02.674Z,10.50
2019-05-06T19:22:32.307Z,10.40
2019-05-06T19:24:59.700Z,10.10
2019-05-06T19:27:27.281Z,10.20
2019-05-06T19:29:54.906Z,10.20
2019-05-06T19:32:22.663Z,10.20
2019-05-06T19:34:52.819Z,10.10
2019-05-06T19:37:19.614Z,10.10
2019-05-06T19:39:47.180Z,10.10
2019-05-06T19:42:14.722Z,10.00
2019-05-06T19:44:43.193Z,9.90
2019-05-06T19:47:13.231Z,9.90
2019-05-06T19:49:42.419Z,9.90
2019-05-06T19:52:10.178Z,9.90
2019-05-06T19:54:37.724Z,9.90
2019-05-06T19:57:05.275Z,9.80
2019-05-06T19:59:33.229Z,9.80
2019-05-06T20:02:00.856Z,9.70
2019-05-06T20:04:28.383Z,9.60
2019-05-06T20:07:02.549Z,9.60
2019-05-06T20:09:37.451Z,9.50
2019-05-06T20:12:09.303Z,9.50
2019-05-06T20:14:36.867Z,9.50
2019-05-06T20:17:04.411Z,9.40
2019-05-06T20:19:33.956Z,9.40
2019-05-06T20:22:01.958Z,9.30
2019-05-06T20:24:29.694Z,9.30
2019-05-06T20:26:57.246Z,9.20
2019-05-06T20:29:24.775Z,9.30
2019-05-06T20:31:53.530Z,9.20
2019-05-06T20:34:22.402Z,9.20
2019-05-06T20:36:52.618Z,9.20
2019-05-06T20:39:19.700Z,9.20
2019-05-06T20:41:47.246Z,9.20
2019-05-06T20:44:14.802Z,9.20
2019-05-06T20:46:42.997Z,9.20
2019-05-06T20:49:10.670Z,9.20
2019-05-06T20:51:38.242Z,9.20
2019-05-06T20:54:09.042Z,9.20
2019-05-06T20:56:36.590Z,9.20
2019-05-06T20:59:04.135Z,9.20
2019-05-06T21:01:32.673Z,9.20
2019-05-06T21:04:02.233Z,9.10
2019-05-06T21:06:29.646Z,9.10
2019-05-06T21:08:57.184Z,9.20
2019-05-06T21:11:28.978Z,9.10
2019-05-06T21:13:54.047Z,9.10
2019-05-06T21:16:22.515Z,9.10
2019-05-06T21:18:52.115Z,9.10
2019-05-06T21:21:19.468Z,9.00
2019-05-06T21:23:47.004Z,8.90
2019-05-06T21:26:14.571Z,9.00
2019-05-06T21:28:42.590Z,9.00
2019-05-06T21:31:12.506Z,8.90
2019-05-06T21:33:42.419Z,8.90
2019-05-06T21:36:09.392Z,8.80
2019-05-06T21:38:36.915Z,8.80
2019-05-06T21:41:04.469Z,8.70
2019-05-06T21:43:43.818Z,8.70
2019-05-06T21:46:02.452Z,8.70
2019-05-06T21:48:30.166Z,8.70
2019-05-06T21:50:57.723Z,8.60
2019-05-06T21:53:25.270Z,8.60
2019-05-06T21:55:52.807Z,8.50
2019-05-06T21:58:20.365Z,8.40
2019-05-06T22:01:02.353Z,8.40
2019-05-06T22:03:32.491Z,8.20
2019-05-06T22:05:59.369Z,8.30
2019-05-06T22:08:26.940Z,8.30
2019-05-06T22:10:54.475Z,8.30
2019-05-06T22:13:22.330Z,8.30
2019-05-06T22:15:49.919Z,8.30
2019-05-06T22:18:17.703Z,8.20
2019-05-06T22:21:03.624Z,8.20
2019-05-06T22:23:49.100Z,8.20
2019-05-06T22:26:16.641Z,8.10
2019-05-06T22:28:44.201Z,8.00
2019-05-06T22:31:11.740Z,7.90
2019-05-06T22:33:39.282Z,7.80
2019-05-06T22:36:06.868Z,7.70
2019-05-06T22:38:34.420Z,7.60
2019-05-06T22:41:02.460Z,7.50
2019-05-06T22:43:30.121Z,7.40
2019-05-06T22:45:57.653Z,7.40
2019-05-06T22:48:25.966Z,7.40
2019-05-06T22:50:53.517Z,7.40
2019-05-06T22:53:22.145Z,7.40
2019-05-06T22:55:50.334Z,7.30
2019-05-06T22:58:17.889Z,7.20
2019-05-06T23:00:53.730Z,7.10
2019-05-06T23:03:28.576Z,7.10
2019-05-06T23:05:56.136Z,7.10
2019-05-06T23:08:26.628Z,7.00
2019-05-06T23:10:52.954Z,6.90
2019-05-06T23:13:20.496Z,6.80
2019-05-06T23:15:48.045Z,6.80
2019-05-06T23:18:15.576Z,6.70
2019-05-06T23:20:43.142Z,6.80
2019-05-06T23:23:12.796Z,6.70
2019-05-06T23:25:43.387Z,6.70
2019-05-06T23:28:09.233Z,6.60
2019-05-06T23:30:36.773Z,6.40
2019-05-06T23:33:04.334Z,6.40
2019-05-06T23:35:31.857Z,6.40
2019-05-06T23:38:17.602Z,6.30
2019-05-06T23:41:03.443Z,6.30
2019-05-06T23:43:49.232Z,6.20
2019-05-06T23:46:35.062Z,6.20
2019-05-06T23:49:22.291Z,6.20
2019-05-06T23:52:08.088Z,6.10
2019-05-06T23:54:54.228Z,6.00
2019-05-06T23:57:22.521Z,6.00
2019-05-06T23:59:51.870Z,5.80
